createdAt,value
2024-03-06T00:00:43.288Z,6.33
2024-03-06T00:02:15.105Z,6.30
2024-03-06T00:03:47.846Z,6.25
2024-03-06T00:05:19.880Z,6.19
2024-03-06T00:06:54.006Z,6.13
2024-03-06T00:08:25.708Z,6.06
2024-03-06T00:09:57.301Z,6.01
2024-03-06T00:11:29.084Z,6.01
2024-03-06T00:13:01.184Z,5.98
2024-03-06T00:14:32.974Z,5.91
2024-03-06T00:16:05.310Z,5.88
2024-03-06T00:17:37.050Z,5.83
2024-03-06T00:19:09.258Z,5.77
2024-03-06T00:20:43.543Z,5.73
2024-03-06T00:22:15.211Z,5.73
2024-03-06T00:23:47.344Z,5.76
2024-03-06T00:25:18.997Z,5.81
2024-03-06T00:26:50.858Z,5.86
2024-03-06T00:28:22.579Z,5.88
2024-03-06T00:29:54.137Z,5.86
2024-03-06T00:31:25.770Z,5.89
2024-03-06T00:32:57.536Z,5.85
2024-03-06T00:34:30.506Z,5.82
2024-03-06T00:36:02.146Z,5.74
2024-03-06T00:37:33.900Z,5.65
2024-03-06T00:39:06.123Z,5.57
2024-03-06T00:40:38.015Z,5.49
2024-03-06T00:42:15.176Z,5.45
2024-03-06T00:43:47.625Z,5.40
2024-03-06T00:45:19.409Z,5.38
2024-03-06T00:46:51.321Z,5.35
2024-03-06T00:48:23.072Z,5.33
2024-03-06T00:49:54.720Z,5.32
2024-03-06T00:51:36.631Z,5.39
2024-03-06T00:53:13.355Z,5.45
2024-03-06T00:54:45.114Z,5.45
2024-03-06T00:56:16.978Z,5.48
2024-03-06T00:57:48.664Z,5.54
2024-03-06T00:59:20.516Z,5.58
2024-03-06T01:00:52.355Z,5.63
2024-03-06T01:02:24.155Z,5.66
2024-03-06T01:03:56.692Z,5.66
2024-03-06T01:05:28.794Z,5.68
2024-03-06T01:07:00.586Z,5.70
2024-03-06T01:08:33.211Z,5.77
2024-03-06T01:10:07.862Z,5.86
2024-03-06T01:11:39.703Z,5.86
2024-03-06T01:13:12.108Z,5.85
2024-03-06T01:14:43.977Z,5.87
2024-03-06T01:16:15.647Z,5.94
2024-03-06T01:17:48.098Z,5.99
2024-03-06T01:19:19.819Z,5.97
2024-03-06T01:20:51.453Z,5.95
2024-03-06T01:22:23.118Z,5.91
2024-03-06T01:23:54.712Z,5.85
2024-03-06T01:25:26.606Z,5.80
2024-03-06T01:26:58.259Z,5.76
2024-03-06T01:28:29.900Z,5.71
2024-03-06T01:30:01.836Z,5.66
2024-03-06T01:31:33.596Z,5.61
2024-03-06T01:33:06.420Z,5.56
2024-03-06T01:34:39.061Z,5.52
2024-03-06T01:36:11.064Z,5.47
2024-03-06T01:37:42.892Z,5.45
2024-03-06T01:39:14.517Z,5.42
2024-03-06T01:40:47.272Z,5.34
2024-03-06T01:42:19.500Z,5.25
2024-03-06T01:43:51.272Z,5.24
2024-03-06T01:45:23.144Z,5.25
2024-03-06T01:46:55.620Z,5.24
2024-03-06T01:48:27.504Z,5.24
2024-03-06T01:49:59.459Z,5.24
2024-03-06T01:51:31.339Z,5.26
2024-03-06T01:53:04.371Z,5.29
2024-03-06T01:54:35.977Z,5.27
2024-03-06T01:56:08.263Z,5.27
2024-03-06T01:57:40.198Z,5.26
2024-03-06T01:59:19.321Z,5.21
2024-03-06T02:00:56.588Z,5.21
2024-03-06T02:02:28.262Z,5.25
2024-03-06T02:03:59.852Z,5.25
2024-03-06T02:05:34.467Z,5.28
2024-03-06T02:07:09.074Z,5.29
2024-03-06T02:08:40.704Z,5.27
2024-03-06T02:10:13.904Z,5.30
2024-03-06T02:11:46.133Z,5.32
2024-03-06T02:13:19.410Z,5.35
2024-03-06T02:14:51.098Z,5.37
2024-03-06T02:16:22.859Z,5.37
2024-03-06T02:17:54.749Z,5.37
2024-03-06T02:19:29.233Z,5.36
2024-03-06T02:21:00.938Z,5.33
2024-03-06T02:22:33.541Z,5.33
2024-03-06T02:24:05.483Z,5.36
2024-03-06T02:25:37.467Z,5.35
2024-03-06T02:27:09.320Z,5.37
2024-03-06T02:28:40.927Z,5.42
2024-03-06T02:30:12.826Z,5.43
2024-03-06T02:31:44.472Z,5.42
2024-03-06T02:33:16.218Z,5.43
2024-03-06T02:34:47.871Z,5.45
2024-03-06T02:36:19.680Z,5.50
2024-03-06T02:37:51.445Z,5.52
2024-03-06T02:39:22.985Z,5.50
2024-03-06T02:40:55.248Z,5.52
2024-03-06T02:42:28.981Z,5.50
2024-03-06T02:44:00.614Z,5.51
2024-03-06T02:45:32.401Z,5.50
2024-03-06T02:47:04.451Z,5.51
2024-03-06T02:48:36.052Z,5.50
2024-03-06T02:50:08.889Z,5.48
2024-03-06T02:51:40.822Z,5.50
2024-03-06T02:53:12.686Z,5.48
2024-03-06T02:54:44.355Z,5.46
2024-03-06T02:56:19.472Z,5.43
2024-03-06T02:57:51.198Z,5.40
2024-03-06T02:59:22.821Z,5.36
2024-03-06T03:00:54.730Z,5.32
2024-03-06T03:02:26.882Z,5.23
2024-03-06T03:03:59.433Z,5.18
2024-03-06T03:05:31.345Z,5.12
2024-03-06T03:07:03.029Z,5.11
2024-03-06T03:08:34.886Z,5.09
2024-03-06T03:10:07.400Z,5.08
2024-03-06T03:11:39.980Z,5.08
2024-03-06T03:13:11.718Z,5.10
2024-03-06T03:14:44.768Z,5.11
2024-03-06T03:16:19.305Z,5.16
2024-03-06T03:17:53.108Z,5.20
2024-03-06T03:19:24.755Z,5.21
2024-03-06T03:20:56.335Z,5.28
2024-03-06T03:22:27.977Z,5.27
2024-03-06T03:23:59.800Z,5.31
2024-03-06T03:25:31.778Z,5.31
2024-03-06T03:27:03.605Z,5.24
2024-03-06T03:28:35.355Z,5.21
2024-03-06T03:30:10.539Z,5.21
2024-03-06T03:31:42.219Z,5.24
2024-03-06T03:33:13.870Z,5.25
2024-03-06T03:34:45.721Z,5.25
2024-03-06T03:36:17.427Z,5.23
2024-03-06T03:37:49.181Z,5.26
2024-03-06T03:39:23.349Z,5.25
2024-03-06T03:40:55.301Z,5.24
2024-03-06T03:42:27.197Z,5.21
2024-03-06T03:43:59.133Z,5.21
2024-03-06T03:45:31.069Z,5.22
2024-03-06T03:47:03.526Z,5.22
2024-03-06T03:48:37.012Z,5.23
2024-03-06T03:50:11.407Z,5.24
2024-03-06T03:51:43.621Z,5.26
2024-03-06T03:53:15.756Z,5.30
2024-03-06T03:54:47.709Z,5.29
2024-03-06T03:56:19.337Z,5.24
2024-03-06T03:57:51.098Z,5.20
2024-03-06T03:59:22.942Z,5.18
2024-03-06T04:00:56.411Z,5.17
2024-03-06T04:02:28.311Z,5.17
2024-03-06T04:04:00.100Z,5.19
2024-03-06T04:05:32.765Z,5.17
2024-03-06T04:07:04.938Z,5.14
2024-03-06T04:08:36.806Z,5.10
2024-03-06T04:10:08.680Z,5.02
2024-03-06T04:11:40.496Z,4.91
2024-03-06T04:13:13.151Z,4.87
2024-03-06T04:14:45.020Z,4.81
2024-03-06T04:16:17.258Z,4.79
2024-03-06T04:17:48.934Z,4.73
2024-03-06T04:19:20.633Z,4.67
2024-03-06T04:20:52.275Z,4.64
2024-03-06T04:22:24.068Z,4.63
2024-03-06T04:23:55.798Z,4.59
2024-03-06T04:25:27.405Z,4.60
2024-03-06T04:26:58.987Z,4.59
2024-03-06T04:28:30.671Z,4.61
2024-03-06T04:30:02.397Z,4.62
2024-03-06T04:31:34.278Z,4.62
2024-03-06T04:33:06.044Z,4.61
2024-03-06T04:34:37.825Z,4.63
2024-03-06T04:36:09.830Z,4.59
2024-03-06T04:37:41.742Z,4.61
2024-03-06T04:39:13.424Z,4.64
2024-03-06T04:40:46.097Z,4.63
2024-03-06T04:42:17.760Z,4.66
2024-03-06T04:43:52.190Z,4.68
2024-03-06T04:45:23.997Z,4.68
2024-03-06T04:46:55.985Z,4.63
2024-03-06T04:48:27.692Z,4.66
2024-03-06T04:49:59.444Z,4.67
2024-03-06T04:51:31.051Z,4.68
2024-03-06T04:53:02.709Z,4.69
2024-03-06T04:54:34.534Z,4.70
2024-03-06T04:56:06.461Z,4.71
2024-03-06T04:57:38.469Z,4.71
2024-03-06T04:59:10.196Z,4.73
2024-03-06T05:00:42.169Z,4.71
2024-03-06T05:02:13.918Z,4.72
2024-03-06T05:58:21.103Z,5.45
2024-03-06T05:59:53.938Z,5.51
2024-03-06T06:01:25.607Z,5.52
2024-03-06T06:02:57.619Z,5.51
2024-03-06T06:04:29.710Z,5.58
2024-03-06T06:06:01.339Z,5.66
2024-03-06T06:07:33.028Z,5.74
2024-03-06T06:09:07.689Z,5.87
2024-03-06T06:10:39.308Z,6.05
2024-03-06T06:12:11.154Z,6.14
2024-03-06T06:13:42.764Z,6.26
2024-03-06T06:15:14.392Z,6.35
2024-03-06T06:16:45.977Z,6.44
2024-03-06T06:18:17.760Z,6.48
2024-03-06T06:19:49.396Z,6.51
2024-03-06T06:21:21.140Z,6.64
2024-03-06T06:22:53.048Z,6.80
2024-03-06T06:24:24.693Z,6.92
2024-03-06T06:25:57.317Z,7.02
2024-03-06T06:27:29.343Z,7.02
2024-03-06T06:29:01.120Z,7.05
2024-03-06T06:30:33.385Z,7.07
2024-03-06T06:32:05.442Z,7.11
2024-03-06T06:33:37.230Z,7.11
2024-03-06T06:35:10.705Z,7.00
2024-03-06T06:36:46.499Z,6.92
2024-03-06T06:38:18.214Z,6.84
2024-03-06T06:39:49.817Z,6.79
2024-03-06T06:41:21.530Z,6.79
2024-03-06T06:42:53.161Z,6.80
2024-03-06T06:44:24.857Z,6.76
2024-03-06T06:45:57.775Z,6.81
2024-03-06T06:47:32.708Z,6.91
2024-03-06T06:49:04.583Z,7.05
2024-03-06T06:50:36.585Z,7.14
2024-03-06T06:52:09.072Z,7.27
2024-03-06T06:53:41.063Z,7.39
2024-03-06T06:55:13.082Z,7.46
2024-03-06T06:56:44.954Z,7.55
2024-03-06T06:58:16.572Z,7.68
2024-03-06T06:59:48.166Z,7.80
2024-03-06T07:01:19.987Z,7.89
2024-03-06T07:02:51.929Z,7.89
2024-03-06T07:04:25.628Z,7.94
2024-03-06T07:05:58.300Z,8.04
2024-03-06T07:07:30.042Z,8.19
2024-03-06T07:09:01.696Z,8.35
2024-03-06T07:10:33.967Z,8.51
2024-03-06T07:12:06.437Z,8.58
2024-03-06T07:13:38.396Z,8.70
2024-03-06T07:15:10.410Z,8.81
2024-03-06T07:16:45.778Z,8.94
2024-03-06T07:18:17.397Z,9.03
2024-03-06T07:19:49.182Z,9.08
2024-03-06T07:21:20.727Z,9.12
2024-03-06T07:22:52.301Z,9.12
2024-03-06T07:24:24.034Z,9.10
2024-03-06T07:25:55.830Z,9.08
2024-03-06T07:27:27.601Z,9.18
2024-03-06T07:28:59.988Z,9.23
2024-03-06T07:30:32.336Z,9.29
2024-03-06T07:32:04.071Z,9.34
2024-03-06T07:33:39.316Z,9.39
2024-03-06T07:35:12.149Z,9.43
2024-03-06T07:36:43.774Z,9.50
2024-03-06T07:38:16.330Z,9.55
2024-03-06T07:39:49.337Z,9.66
2024-03-06T07:41:22.086Z,9.78
2024-03-06T07:42:53.789Z,9.85
2024-03-06T07:44:25.383Z,9.89
2024-03-06T07:45:56.987Z,9.91
2024-03-06T07:47:28.941Z,9.89
2024-03-06T07:49:00.695Z,9.94
2024-03-06T07:50:32.419Z,10.01
2024-03-06T07:52:04.775Z,10.11
2024-03-06T07:53:36.793Z,10.17
2024-03-06T07:55:08.637Z,10.37
2024-03-06T07:56:40.477Z,10.57
2024-03-06T07:58:12.046Z,10.74
2024-03-06T07:59:43.778Z,10.89
2024-03-06T08:01:17.219Z,11.05
2024-03-06T08:02:51.790Z,11.21
2024-03-06T08:04:24.548Z,11.34
2024-03-06T08:05:56.577Z,11.47
2024-03-06T08:07:29.105Z,11.57
2024-03-06T08:09:03.212Z,11.64
2024-03-06T08:10:35.193Z,11.70
2024-03-06T08:12:06.999Z,11.75
2024-03-06T08:13:41.659Z,11.80
2024-03-06T08:15:13.692Z,11.90
2024-03-06T08:16:45.536Z,11.97
2024-03-06T08:18:17.148Z,12.00
2024-03-06T08:19:48.759Z,12.08
2024-03-06T08:21:21.148Z,12.08
2024-03-06T08:22:52.797Z,12.14
2024-03-06T08:24:25.423Z,12.29
2024-03-06T08:25:57.262Z,12.52
2024-03-06T08:27:28.833Z,12.65
2024-03-06T08:29:00.456Z,12.74
2024-03-06T08:30:32.326Z,12.73
2024-03-06T08:32:05.061Z,12.74
2024-03-06T08:33:36.900Z,12.76
2024-03-06T08:35:17.784Z,12.79
2024-03-06T08:36:51.855Z,12.78
2024-03-06T08:38:23.519Z,12.80
2024-03-06T08:39:55.157Z,12.88
2024-03-06T08:41:27.006Z,12.97
2024-03-06T08:42:58.956Z,12.98
2024-03-06T08:44:30.651Z,13.07
2024-03-06T08:46:02.920Z,13.03
2024-03-06T08:47:34.904Z,13.05
2024-03-06T08:49:08.818Z,13.15
2024-03-06T08:50:42.802Z,13.25
2024-03-06T08:52:14.683Z,13.30
2024-03-06T08:53:46.703Z,13.32
2024-03-06T08:55:18.937Z,13.44
2024-03-06T08:56:54.835Z,13.55
2024-03-06T08:58:26.929Z,13.56
2024-03-06T08:59:58.922Z,13.60
2024-03-06T09:01:30.604Z,13.72
2024-03-06T09:03:02.274Z,13.76
2024-03-06T09:04:34.102Z,13.85
2024-03-06T09:06:05.807Z,13.93
2024-03-06T09:07:39.451Z,13.97
2024-03-06T09:09:11.110Z,13.97
2024-03-06T09:10:42.635Z,14.04
2024-03-06T09:12:15.908Z,14.10
2024-03-06T09:13:47.692Z,14.23
2024-03-06T09:15:20.422Z,14.34
2024-03-06T09:16:52.642Z,14.49
2024-03-06T09:18:24.790Z,14.61
2024-03-06T09:20:07.819Z,14.75
2024-03-06T09:21:41.229Z,14.75
2024-03-06T09:23:12.869Z,14.77
2024-03-06T09:24:44.528Z,14.86
2024-03-06T09:26:16.213Z,14.92
2024-03-06T09:27:47.960Z,14.96
2024-03-06T09:29:19.985Z,15.04
2024-03-06T09:30:51.964Z,15.09
2024-03-06T09:32:23.808Z,15.12
2024-03-06T09:33:55.941Z,15.20
2024-03-06T09:37:00.506Z,15.34
2024-03-06T09:38:32.610Z,15.40
2024-03-06T09:40:04.506Z,15.53
2024-03-06T09:41:36.491Z,15.63
2024-03-06T09:43:08.925Z,15.71
2024-03-06T09:44:41.271Z,15.78
2024-03-06T09:46:13.331Z,15.90
2024-03-06T09:47:45.961Z,16.08
2024-03-06T09:49:19.610Z,16.30
2024-03-06T09:50:51.576Z,16.45
2024-03-06T09:52:23.645Z,16.53
2024-03-06T09:53:55.952Z,16.59
2024-03-06T09:55:28.951Z,16.54
2024-03-06T09:57:00.658Z,16.54
2024-03-06T09:58:32.714Z,16.59
2024-03-06T10:00:07.365Z,16.64
2024-03-06T10:01:45.607Z,16.82
2024-03-06T10:03:17.305Z,16.87
2024-03-06T10:04:48.888Z,16.83
2024-03-06T10:06:21.656Z,16.85
2024-03-06T10:07:54.013Z,16.73
2024-03-06T10:09:25.810Z,16.52
2024-03-06T10:10:58.282Z,16.43
2024-03-06T10:12:30.718Z,16.48
2024-03-06T10:14:02.645Z,16.56
2024-03-06T10:15:37.589Z,16.68
2024-03-06T10:17:09.366Z,16.84
2024-03-06T10:18:41.392Z,16.98
2024-03-06T10:20:25.818Z,17.19
2024-03-06T10:21:59.234Z,17.44
2024-03-06T10:23:31.890Z,17.58
2024-03-06T10:25:04.240Z,17.57
2024-03-06T10:26:36.212Z,17.55
2024-03-06T10:28:11.646Z,17.64
2024-03-06T10:29:44.572Z,17.69
2024-03-06T10:31:16.871Z,17.84
2024-03-06T10:32:48.713Z,18.08
2024-03-06T10:34:21.688Z,18.33
2024-03-06T10:35:53.413Z,18.23
2024-03-06T10:37:25.342Z,18.03
2024-03-06T10:38:56.938Z,17.96
2024-03-06T10:40:30.662Z,17.96
2024-03-06T10:42:03.757Z,17.91
2024-03-06T10:43:36.618Z,18.07
2024-03-06T10:45:08.447Z,18.26
2024-03-06T10:46:41.007Z,18.48
2024-03-06T10:48:12.893Z,18.61
2024-03-06T10:49:44.634Z,18.63
2024-03-06T10:51:16.301Z,18.42
2024-03-06T10:52:48.519Z,18.34
2024-03-06T10:54:20.387Z,18.35
2024-03-06T10:55:52.560Z,18.45
2024-03-06T10:57:24.255Z,18.74
2024-03-06T10:58:55.915Z,18.96
2024-03-06T11:00:30.109Z,19.06
2024-03-06T11:02:02.309Z,19.08
2024-03-06T11:03:34.078Z,19.11
2024-03-06T11:05:06.741Z,18.97
2024-03-06T11:06:39.202Z,18.83
2024-03-06T11:08:12.128Z,18.75
2024-03-06T11:09:44.425Z,18.76
2024-03-06T11:11:25.957Z,18.80
2024-03-06T11:12:57.831Z,18.88
2024-03-06T11:14:30.899Z,19.02
2024-03-06T11:16:02.469Z,19.24
2024-03-06T11:17:34.211Z,19.36
2024-03-06T11:19:09.307Z,19.39
2024-03-06T11:20:41.220Z,19.36
2024-03-06T11:22:13.522Z,19.27
2024-03-06T11:24:04.961Z,19.31
2024-03-06T11:25:49.008Z,19.45
2024-03-06T11:27:20.613Z,19.35
2024-03-06T11:28:52.484Z,19.20
2024-03-06T11:30:24.669Z,18.98
2024-03-06T11:32:00.859Z,18.78
2024-03-06T11:33:39.284Z,18.84
2024-03-06T11:35:13.483Z,18.84
2024-03-06T11:36:45.671Z,18.86
2024-03-06T11:38:22.524Z,18.92
2024-03-06T11:39:54.240Z,18.96
2024-03-06T11:41:26.983Z,19.21
2024-03-06T11:42:59.089Z,19.45
2024-03-06T11:44:31.159Z,19.87
2024-03-06T11:46:10.922Z,20.23
2024-03-06T11:48:01.273Z,20.48
2024-03-06T11:49:35.480Z,20.72
2024-03-06T11:51:08.297Z,20.79
2024-03-06T11:52:41.263Z,20.71
2024-03-06T11:54:13.770Z,20.55
2024-03-06T11:55:45.978Z,20.51
2024-03-06T11:57:21.619Z,20.48
2024-03-06T11:58:54.273Z,20.28
2024-03-06T12:00:25.953Z,20.12
2024-03-06T12:01:58.980Z,20.08
2024-03-06T12:03:31.390Z,19.80
2024-03-06T12:05:04.360Z,19.43
2024-03-06T12:06:36.384Z,19.21
2024-03-06T12:08:09.534Z,19.01
2024-03-06T12:09:43.335Z,18.68
2024-03-06T12:11:17.315Z,18.52
2024-03-06T12:12:49.045Z,18.49
2024-03-06T12:14:20.945Z,18.60
2024-03-06T12:15:52.837Z,18.78
2024-03-06T12:17:24.682Z,18.75
2024-03-06T12:18:58.691Z,18.71
2024-03-06T12:20:32.430Z,18.80
2024-03-06T12:22:08.062Z,18.94
2024-03-06T12:23:39.758Z,19.12
2024-03-06T12:25:11.926Z,19.15
2024-03-06T12:26:44.001Z,19.29
2024-03-06T12:28:15.841Z,19.32
2024-03-06T12:29:48.161Z,19.35
2024-03-06T12:31:19.908Z,19.44
2024-03-06T12:33:17.809Z,19.51
2024-03-06T12:35:01.644Z,19.60
2024-03-06T12:36:34.368Z,19.54
2024-03-06T12:38:15.591Z,19.52
2024-03-06T12:39:47.739Z,19.42
2024-03-06T12:41:22.243Z,19.22
2024-03-06T12:42:54.752Z,19.08
2024-03-06T12:44:26.431Z,18.98
2024-03-06T12:46:00.580Z,18.83
2024-03-06T12:47:33.689Z,18.69
2024-03-06T12:49:05.319Z,18.66
2024-03-06T12:50:37.020Z,18.63
2024-03-06T12:52:10.166Z,18.45
2024-03-06T12:53:42.432Z,18.34
2024-03-06T12:55:16.885Z,18.34
2024-03-06T12:56:48.681Z,18.31
2024-03-06T12:58:21.286Z,18.31
2024-03-06T12:59:52.947Z,18.24
2024-03-06T13:01:24.716Z,18.16
2024-03-06T13:02:56.367Z,18.13
2024-03-06T13:04:28.059Z,18.06
2024-03-06T13:06:00.606Z,18.02
2024-03-06T13:07:32.691Z,17.97
2024-03-06T13:09:04.870Z,17.99
2024-03-06T13:10:37.070Z,18.06
2024-03-06T13:12:08.924Z,18.11
2024-03-06T13:13:40.797Z,17.99
2024-03-06T13:15:12.929Z,18.01
2024-03-06T13:16:44.726Z,18.04
2024-03-06T13:18:17.524Z,18.14
2024-03-06T13:19:49.353Z,18.19
2024-03-06T13:21:21.697Z,18.16
2024-03-06T13:22:53.420Z,18.22
2024-03-06T13:24:25.069Z,18.29
2024-03-06T13:25:58.948Z,18.36
2024-03-06T13:27:30.607Z,18.40
2024-03-06T13:29:02.771Z,18.39
2024-03-06T13:30:34.503Z,18.43
2024-03-06T13:32:06.578Z,18.39
2024-03-06T13:33:38.549Z,18.27
2024-03-06T13:35:15.185Z,18.19
2024-03-06T13:36:46.819Z,18.17
2024-03-06T13:38:19.500Z,17.98
2024-03-06T13:39:52.260Z,17.83
2024-03-06T13:41:25.811Z,17.63
2024-03-06T13:43:00.093Z,17.43
2024-03-06T13:44:32.214Z,17.27
2024-03-06T13:46:04.496Z,17.14
2024-03-06T13:47:37.128Z,16.97
2024-03-06T13:49:09.283Z,16.73
2024-03-06T13:50:42.083Z,16.57
2024-03-06T13:52:16.672Z,16.49
2024-03-06T13:53:50.024Z,16.49
2024-03-06T13:55:21.947Z,16.39
2024-03-06T13:56:57.381Z,16.30
2024-03-06T13:58:29.029Z,16.24
2024-03-06T14:00:02.233Z,16.20
2024-03-06T14:01:34.563Z,16.16
2024-03-06T14:03:06.294Z,16.11
2024-03-06T14:04:38.003Z,16.01
2024-03-06T14:06:10.998Z,15.91
2024-03-06T14:07:43.023Z,15.80
2024-03-06T14:09:15.531Z,15.71
2024-03-06T14:10:47.438Z,15.70
2024-03-06T14:12:19.373Z,15.65
2024-03-06T14:13:51.012Z,15.63
2024-03-06T14:15:24.232Z,15.64
2024-03-06T14:16:56.612Z,15.65
2024-03-06T14:18:28.631Z,15.66
2024-03-06T14:20:00.670Z,15.67
2024-03-06T14:21:33.096Z,15.67
2024-03-06T14:23:05.106Z,15.70
2024-03-06T14:24:39.852Z,15.76
2024-03-06T14:26:11.586Z,15.82
2024-03-06T14:27:43.718Z,15.88
2024-03-06T14:29:15.384Z,15.96
2024-03-06T14:30:48.882Z,16.00
2024-03-06T14:32:20.593Z,15.84
2024-03-06T14:33:52.455Z,15.72
2024-03-06T14:35:24.962Z,15.69
2024-03-06T14:36:56.794Z,15.66
2024-03-06T14:38:28.534Z,15.62
2024-03-06T14:40:03.407Z,15.57
2024-03-06T14:41:38.389Z,15.55
2024-03-06T14:43:11.621Z,15.48
2024-03-06T14:44:45.847Z,15.32
2024-03-06T14:46:17.668Z,15.21
2024-03-06T14:47:49.821Z,15.02
2024-03-06T14:49:21.792Z,14.92
2024-03-06T14:50:53.546Z,14.86
2024-03-06T14:52:25.346Z,14.84
2024-03-06T14:53:57.299Z,14.75
2024-03-06T14:55:33.797Z,14.66
2024-03-06T14:57:07.579Z,14.52
2024-03-06T14:58:39.503Z,14.42
2024-03-06T15:00:13.201Z,14.39
2024-03-06T15:01:45.973Z,14.38
2024-03-06T15:03:18.938Z,14.30
2024-03-06T15:04:50.580Z,14.25
2024-03-06T15:06:22.642Z,14.16
2024-03-06T15:07:54.978Z,14.08
2024-03-06T15:09:27.387Z,14.00
2024-03-06T15:10:59.372Z,13.93
2024-03-06T15:12:31.126Z,13.87
2024-03-06T15:14:03.335Z,13.87
2024-03-06T15:15:35.203Z,13.83
2024-03-06T15:17:07.423Z,13.84
2024-03-06T15:18:39.262Z,13.94
2024-03-06T15:20:11.361Z,14.07
2024-03-06T15:21:43.042Z,14.19
2024-03-06T15:23:16.535Z,14.26
2024-03-06T15:24:49.153Z,14.28
2024-03-06T15:26:20.915Z,14.33
2024-03-06T15:27:53.063Z,14.35
2024-03-06T15:29:24.799Z,14.38
2024-03-06T15:30:58.266Z,14.43
2024-03-06T15:32:30.043Z,14.49
2024-03-06T15:34:01.809Z,14.53
2024-03-06T15:35:33.833Z,14.53
2024-03-06T15:37:07.144Z,14.56
2024-03-06T15:38:39.117Z,14.58
2024-03-06T15:40:12.193Z,14.60
2024-03-06T15:41:43.894Z,14.61
2024-03-06T15:43:15.568Z,14.62
2024-03-06T15:44:47.577Z,14.57
2024-03-06T15:46:19.647Z,14.53
2024-03-06T15:47:51.934Z,14.47
2024-03-06T15:49:27.650Z,14.45
2024-03-06T15:51:01.637Z,14.40
2024-03-06T15:52:33.425Z,14.38
2024-03-06T15:54:05.495Z,14.36
2024-03-06T15:55:37.533Z,14.33
2024-03-06T15:57:09.262Z,14.27
2024-03-06T15:58:41.504Z,14.24
2024-03-06T16:00:16.448Z,14.24
2024-03-06T16:01:48.171Z,14.20
2024-03-06T16:03:21.436Z,14.19
2024-03-06T16:04:53.440Z,14.16
2024-03-06T16:06:31.440Z,14.13
2024-03-06T16:08:06.263Z,14.09
2024-03-06T16:09:38.132Z,14.09
2024-03-06T16:11:09.811Z,14.12
2024-03-06T16:12:41.461Z,14.14
2024-03-06T16:14:13.199Z,14.12
2024-03-06T16:15:45.228Z,14.14
2024-03-06T16:17:18.050Z,14.14
2024-03-06T16:18:49.725Z,14.12
2024-03-06T16:20:22.132Z,14.08
2024-03-06T16:21:54.048Z,13.99
2024-03-06T16:23:26.262Z,13.81
2024-03-06T16:24:58.182Z,13.63
2024-03-06T16:26:30.769Z,13.45
2024-03-06T16:28:02.510Z,13.30
2024-03-06T16:29:34.182Z,13.17
2024-03-06T16:31:05.841Z,13.07
2024-03-06T16:32:38.474Z,12.95
2024-03-06T16:34:10.730Z,12.86
2024-03-06T16:35:42.625Z,12.75
2024-03-06T16:37:14.333Z,12.68
2024-03-06T16:38:46.476Z,12.62
2024-03-06T16:40:18.350Z,12.58
2024-03-06T16:41:50.273Z,12.53
2024-03-06T16:43:22.276Z,12.47
2024-03-06T16:44:55.560Z,12.39
2024-03-06T16:46:30.141Z,12.32
2024-03-06T16:48:02.176Z,12.22
2024-03-06T16:49:33.873Z,12.16
2024-03-06T16:51:05.561Z,12.12
2024-03-06T16:52:37.473Z,12.04
2024-03-06T16:54:09.180Z,12.01
2024-03-06T16:55:41.714Z,11.92
2024-03-06T16:57:13.903Z,11.85
2024-03-06T16:58:45.533Z,11.77
2024-03-06T17:00:18.166Z,11.72
2024-03-06T17:01:50.597Z,11.67
2024-03-06T17:03:22.434Z,11.58
2024-03-06T17:04:54.488Z,11.52
2024-03-06T17:06:26.278Z,11.52
2024-03-06T17:07:58.001Z,11.47
2024-03-06T17:09:29.786Z,11.43
2024-03-06T17:11:01.536Z,11.38
2024-03-06T17:12:33.243Z,11.30
2024-03-06T17:14:05.186Z,11.27
2024-03-06T17:15:36.847Z,11.26
2024-03-06T17:17:08.523Z,11.21
2024-03-06T17:18:40.193Z,11.18
2024-03-06T17:20:11.912Z,11.14
2024-03-06T17:21:43.870Z,11.15
2024-03-06T17:23:15.978Z,11.12
2024-03-06T17:24:47.910Z,11.12
2024-03-06T17:26:20.385Z,11.08
2024-03-06T17:27:52.441Z,11.06
2024-03-06T17:29:24.653Z,11.03
2024-03-06T17:30:57.083Z,11.08
2024-03-06T17:32:28.931Z,11.07
2024-03-06T17:34:01.733Z,11.03
2024-03-06T17:35:33.910Z,11.01
2024-03-06T17:37:08.505Z,10.98
2024-03-06T17:38:42.802Z,10.98
2024-03-06T17:40:15.401Z,10.98
2024-03-06T17:41:47.852Z,10.97
2024-03-06T17:43:19.843Z,10.99
2024-03-06T17:44:51.937Z,10.97
2024-03-06T17:46:23.873Z,10.99
2024-03-06T17:47:56.366Z,10.96
2024-03-06T17:49:28.307Z,10.98
2024-03-06T17:51:00.157Z,10.96
2024-03-06T17:52:32.941Z,10.95
2024-03-06T17:54:05.226Z,10.96
2024-03-06T17:55:38.250Z,10.95
2024-03-06T17:57:10.032Z,10.96
2024-03-06T17:58:42.294Z,10.95
2024-03-06T18:00:17.242Z,11.00
2024-03-06T18:01:48.916Z,11.01
2024-03-06T18:03:25.427Z,11.01
2024-03-06T18:04:57.586Z,11.07
2024-03-06T18:06:29.932Z,11.11
2024-03-06T18:08:01.682Z,11.12
2024-03-06T18:09:33.287Z,11.09
2024-03-06T18:11:05.121Z,11.09
2024-03-06T18:12:37.268Z,11.10
2024-03-06T18:14:09.489Z,11.11
2024-03-06T18:15:41.249Z,11.06
2024-03-06T18:17:15.750Z,11.01
2024-03-06T18:18:47.991Z,10.99
2024-03-06T18:20:19.912Z,10.98
2024-03-06T18:21:52.608Z,10.94
2024-03-06T18:23:26.318Z,10.93
2024-03-06T18:24:59.619Z,10.89
2024-03-06T18:26:31.239Z,10.87
2024-03-06T18:28:02.929Z,10.86
2024-03-06T18:29:34.841Z,10.85
2024-03-06T18:31:07.868Z,10.88
2024-03-06T18:32:39.702Z,10.91
2024-03-06T18:34:11.433Z,10.94
2024-03-06T18:35:43.453Z,10.98
2024-03-06T18:37:15.524Z,11.04
2024-03-06T18:38:47.440Z,11.09
2024-03-06T18:40:19.195Z,11.12
2024-03-06T18:41:52.373Z,11.08
2024-03-06T18:43:24.639Z,11.03
2024-03-06T18:44:56.463Z,11.02
2024-03-06T18:46:30.247Z,11.00
2024-03-06T18:48:03.709Z,10.98
2024-03-06T18:49:35.704Z,10.97
2024-03-06T18:51:07.896Z,10.97
2024-03-06T18:52:40.011Z,10.95
2024-03-06T18:54:11.669Z,10.96
2024-03-06T18:55:43.534Z,10.94
2024-03-06T18:57:15.763Z,10.90
2024-03-06T18:58:47.913Z,10.90
2024-03-06T19:00:19.860Z,10.88
2024-03-06T19:01:51.704Z,10.87
2024-03-06T19:03:23.346Z,10.84
2024-03-06T19:04:55.043Z,10.82
2024-03-06T19:06:27.873Z,10.86
2024-03-06T19:08:00.368Z,10.86
2024-03-06T19:09:32.950Z,10.85
2024-03-06T19:11:05.832Z,10.82
2024-03-06T19:12:38.128Z,10.84
2024-03-06T19:14:10.415Z,10.84
2024-03-06T19:15:42.712Z,10.86
2024-03-06T19:17:14.899Z,10.90
2024-03-06T19:18:46.916Z,10.91
2024-03-06T19:20:18.918Z,10.90
2024-03-06T19:21:53.231Z,10.93
2024-03-06T19:23:24.953Z,10.96
2024-03-06T19:24:56.672Z,10.93
2024-03-06T19:26:28.757Z,10.95
2024-03-06T19:28:00.562Z,10.96
2024-03-06T19:29:32.759Z,10.97
2024-03-06T19:31:04.772Z,11.00
2024-03-06T19:32:47.249Z,11.00
2024-03-06T19:34:26.126Z,11.02
2024-03-06T19:35:58.144Z,11.02
2024-03-06T19:37:32.879Z,11.01
2024-03-06T19:39:10.148Z,10.95
2024-03-06T19:40:43.635Z,10.90
2024-03-06T19:42:15.560Z,10.85
2024-03-06T19:43:47.464Z,10.82
2024-03-06T19:45:19.718Z,10.79
2024-03-06T19:46:54.638Z,10.77
2024-03-06T19:48:26.855Z,10.75
2024-03-06T19:49:58.529Z,10.71
2024-03-06T19:51:30.861Z,10.66
2024-03-06T19:53:03.564Z,10.62
2024-03-06T19:54:35.207Z,10.61
2024-03-06T19:56:07.390Z,10.57
2024-03-06T19:57:39.297Z,10.58
2024-03-06T19:59:10.957Z,10.53
2024-03-06T20:00:42.843Z,10.46
2024-03-06T20:02:14.770Z,10.42
2024-03-06T20:03:46.731Z,10.42
2024-03-06T20:05:18.531Z,10.41
2024-03-06T20:06:50.574Z,10.41
2024-03-06T20:08:22.861Z,10.37
2024-03-06T20:09:55.047Z,10.32
2024-03-06T20:11:27.427Z,10.29
2024-03-06T20:13:03.450Z,10.29
2024-03-06T20:14:35.517Z,10.28
2024-03-06T20:16:07.921Z,10.25
2024-03-06T20:17:40.142Z,10.26
2024-03-06T20:19:12.520Z,10.24
2024-03-06T20:20:45.055Z,10.23
2024-03-06T20:22:17.598Z,10.18
2024-03-06T20:23:50.264Z,10.10
2024-03-06T20:25:22.168Z,10.09
2024-03-06T20:26:54.230Z,10.10
2024-03-06T20:28:26.623Z,10.09
2024-03-06T20:29:58.365Z,10.12
2024-03-06T20:31:30.295Z,10.14
2024-03-06T20:33:02.469Z,10.15
2024-03-06T20:34:34.533Z,10.16
2024-03-06T20:36:06.499Z,10.14
2024-03-06T20:37:38.946Z,10.13
2024-03-06T20:39:16.725Z,10.08
2024-03-06T20:40:49.465Z,10.08
2024-03-06T20:42:28.219Z,10.07
2024-03-06T20:44:00.805Z,10.08
2024-03-06T20:45:32.879Z,10.07
2024-03-06T20:47:06.200Z,10.06
2024-03-06T20:48:39.100Z,10.08
2024-03-06T20:50:11.919Z,10.11
2024-03-06T20:51:44.787Z,10.11
2024-03-06T20:53:17.425Z,10.09
2024-03-06T20:54:49.374Z,10.09
2024-03-06T20:56:22.252Z,10.08
2024-03-06T20:57:54.499Z,10.10
2024-03-06T20:59:26.803Z,10.11
2024-03-06T21:00:59.545Z,10.15
2024-03-06T21:02:31.987Z,10.15